Stations météo

Publicité
Chamonix, France (7469): Température de l'air & dewpoint: 20.09.2020 03:00:00 - 26.09.2020 03:00:00 (CEST)Chamonix, France (7469): Vitesse du vent & gusts: 20.09.2020 03:00:00 - 26.09.2020 03:00:00 (CEST)Chamonix, France (7469): Direction du vent: 20.09.2020 03:00:00 - 26.09.2020 03:00:00 (CEST)Chamonix, France (7469): Quantités de précipitations: 20.09.2020 03:00:00 - 26.09.2020 03:00:00 (CEST)
Date & Time tt [°C] td [°C] ff [km/h] ff [knt] fx [km/h] fx [knt] dd rr [mm]
26.09.2020 03:00:00 2,1 1,8 3 1 26 14 ESE 0,8
26.09.2020 02:00:00 2,1 1,7 0 0 11 6 N 0,8
26.09.2020 01:00:00 2,8 2,4 2 1 25 13 W 0,8
26.09.2020 00:00:00 3,0 2,1 6 3 25 13 SW 0,4
25.09.2020 23:00:00 3,0 2,6 2 1 9 5 NNE 0,8
25.09.2020 22:00:00 3,1 3,0 2 1 9 5 NNE 0,0
25.09.2020 21:00:00 3,4 2,5 5 3 25 14 SSW 1,2
25.09.2020 20:00:00 3,7 2,7 6 3 26 14 SW 1,0
25.09.2020 19:00:00 4,2 3,2 10 5 27 14 WSW 0,4
25.09.2020 18:00:00 4,1 3,4 3 1 27 15 S 1,4
25.09.2020 17:00:00 4,8 3,6 3 1 24 13 W 0,4
25.09.2020 16:00:00 5,0 3,0 10 5 29 16 SSW 1,0
25.09.2020 15:00:00 5,8 4,3 6 3 20 11 WSW 0,2
25.09.2020 14:00:00 5,2 2,9 9 5 31 17 S 1,2
25.09.2020 13:00:00 7,1 4,4 4 2 21 12 NE 0,0
25.09.2020 12:00:00 7,3 3,9 8 4 27 14 S 0,0
25.09.2020 11:00:00 6,4 4,4 6 3 14 7 W 0,0
25.09.2020 10:00:00 5,2 4,2 3 1 19 11 SSW 0,0
25.09.2020 09:00:00 5,0 3,8 5 3 23 12 SSW 1,6
25.09.2020 08:00:00 5,4 4,8 3 1 19 10 SSW 1,0
25.09.2020 07:00:00 5,4 5,1 0 0 35 19 N 5,0
25.09.2020 06:00:00 7,2 5,5 11 6 38 20 SSW 3,2
25.09.2020 05:00:00 8,4 8,4 0 0 5 3 N 0,0
25.09.2020 04:00:00 8,4 8,4 0 0 14 8 N 0,0
25.09.2020 03:00:00 8,6 8,3 2 1 9 5 NNW 0,2
25.09.2020 02:00:00 9,8 9,7 3 1 9 5 W 0,0
25.09.2020 01:00:00 10,1 10,1 3 2 10 5 N 0,6
25.09.2020 00:00:00 10,1 9,9 2 1 8 4 NNW 0,0
24.09.2020 23:00:00 11,1 10,8 0 0 12 6 N 3,4
24.09.2020 22:00:00 11,5 11,3 5 3 12 6 NW 2,2
24.09.2020 21:00:00 11,6 11,4 4 2 18 10 NW 1,6
24.09.2020 20:00:00 11,5 11,2 3 1 7 4 NE 0,0
24.09.2020 19:00:00 - - - - - - - -
24.09.2020 18:00:00 12,5 11,9 0 0 15 8 N 0,8
24.09.2020 17:00:00 13,2 11,6 3 2 48 26 S 1,6
24.09.2020 16:00:00 16,8 10,9 4 2 17 9 S 0,0
24.09.2020 15:00:00 18,1 10,5 3 2 13 7 NNE 0,0
24.09.2020 14:00:00 16,2 10,5 5 3 13 7 WSW 0,0
24.09.2020 13:00:00 16,0 13,1 0 0 11 6 N 0,0
24.09.2020 12:00:00 14,9 13,4 2 1 6 3 ENE 0,0
24.09.2020 11:00:00 14,7 10,9 3 1 8 5 W 0,0
24.09.2020 10:00:00 12,3 12,1 2 1 9 5 ENE 0,0
24.09.2020 09:00:00 11,3 11,3 2 1 5 3 E 0,0
24.09.2020 08:00:00 10,7 10,7 0 0 7 4 N 0,0
24.09.2020 07:00:00 11,0 10,8 2 1 6 3 ENE 0,0
24.09.2020 06:00:00 11,2 11,2 3 1 6 4 NE 1,8
24.09.2020 05:00:00 11,5 11,5 0 0 10 5 N 1,6
24.09.2020 04:00:00 11,5 11,5 2 1 10 5 SSW 0,6
24.09.2020 03:00:00 11,1 11,1 3 2 9 5 NNE 0,8
24.09.2020 02:00:00 11,0 10,8 0 0 9 5 N 0,0
24.09.2020 01:00:00 10,8 10,6 2 1 6 4 SSE 0,0
24.09.2020 00:00:00 10,5 10,3 3 2 8 5 NE 0,0
23.09.2020 23:00:00 - - - - - - - -
23.09.2020 22:00:00 10,3 10,0 0 0 6 4 N 0,0
23.09.2020 21:00:00 11,4 10,9 0 0 5 3 N 0,0
23.09.2020 20:00:00 13,0 11,9 0 0 6 3 N 0,0
23.09.2020 19:00:00 15,3 13,1 2 1 12 6 NNE 0,0
23.09.2020 18:00:00 16,6 11,7 4 2 18 10 SW 0,0
23.09.2020 17:00:00 17,4 11,7 7 4 18 10 WSW 0,0
23.09.2020 16:00:00 16,9 11,2 8 4 18 10 W 0,0
23.09.2020 15:00:00 17,0 10,6 5 3 17 9 WSW 0,0
23.09.2020 14:00:00 17,8 10,2 9 5 21 12 WSW 0,0
23.09.2020 13:00:00 18,5 9,6 10 5 20 11 WSW 0,0
23.09.2020 12:00:00 16,9 11,2 2 1 13 7 SE 0,0
23.09.2020 11:00:00 13,4 11,5 0 0 5 3 N 0,0
23.09.2020 10:00:00 12,2 11,9 0 0 4 2 N 0,0
23.09.2020 09:00:00 11,9 11,9 2 1 6 4 E 0,0
23.09.2020 08:00:00 11,4 11,4 2 1 5 3 NE 0,2
23.09.2020 07:00:00 11,3 11,1 2 1 4 2 NW 0,4
23.09.2020 06:00:00 11,3 11,1 0 0 3 2 N 0,0
23.09.2020 05:00:00 11,3 11,1 0 0 4 2 N 0,0
23.09.2020 04:00:00 11,2 11,0 0 0 4 2 N 0,0
23.09.2020 03:00:00 11,4 11,2 0 0 4 2 N 0,0
23.09.2020 02:00:00 11,5 11,3 2 1 5 3 E 0,2
23.09.2020 01:00:00 11,6 11,4 2 1 3 2 NE 0,0
23.09.2020 00:00:00 11,7 11,4 0 0 4 2 N 0,2
22.09.2020 23:00:00 11,9 11,6 0 0 10 5 N 0,6
22.09.2020 22:00:00 12,5 11,9 3 1 10 5 S 1,0
22.09.2020 21:00:00 12,9 12,3 0 0 20 11 N 1,2
22.09.2020 20:00:00 14,5 11,6 7 4 29 16 S 0,6
22.09.2020 19:00:00 - - - - - - - -
22.09.2020 18:00:00 18,0 11,1 5 3 22 12 SSW 0,0
22.09.2020 17:00:00 20,8 11,7 4 2 20 11 SW 0,0
22.09.2020 16:00:00 18,8 10,6 8 5 24 13 SW 0,0
22.09.2020 15:00:00 19,0 10,3 5 3 23 13 SW 0,0
22.09.2020 14:00:00 21,1 10,9 8 5 24 13 SSW 0,0
22.09.2020 13:00:00 20,3 11,5 4 2 11 6 SE 0,0
22.09.2020 12:00:00 16,2 11,6 4 2 10 5 NE 0,0
22.09.2020 11:00:00 14,2 12,1 4 2 10 5 S 0,0
22.09.2020 10:00:00 12,0 12,0 0 0 5 3 N 0,0
22.09.2020 09:00:00 11,4 11,4 0 0 6 3 N 0,0
22.09.2020 08:00:00 10,9 10,9 0 0 8 4 N 0,0
22.09.2020 07:00:00 10,9 10,9 2 1 4 2 NE 0,0
22.09.2020 06:00:00 10,9 10,9 0 0 5 3 N 0,0
22.09.2020 05:00:00 11,1 10,9 0 0 5 3 N 0,0
22.09.2020 04:00:00 11,3 11,3 0 0 5 3 N 0,0
22.09.2020 03:00:00 11,2 11,0 0 0 5 3 N 0,0
22.09.2020 02:00:00 11,4 11,2 0 0 5 3 N 0,0
22.09.2020 01:00:00 12,2 12,0 0 0 4 2 N 0,0
22.09.2020 00:00:00 12,6 12,4 0 0 6 3 N 0,6
21.09.2020 23:00:00 12,7 12,4 2 1 6 3 NE 0,0
21.09.2020 22:00:00 13,0 12,7 2 1 4 2 N 0,0
21.09.2020 21:00:00 13,5 12,9 2 1 6 3 NE 0,4
21.09.2020 20:00:00 15,0 12,5 4 2 12 6 SW 0,0
21.09.2020 19:00:00 15,5 12,3 2 1 16 8 SSW 0,0
21.09.2020 18:00:00 16,9 11,8 6 3 18 10 SW 0,0
21.09.2020 17:00:00 18,9 12,2 0 0 9 5 N 0,0
21.09.2020 16:00:00 17,8 11,6 4 2 10 6 WSW 0,0
21.09.2020 15:00:00 17,4 13,7 4 2 9 5 NNE 0,0
21.09.2020 14:00:00 17,8 12,7 4 2 16 9 WSW 0,0
21.09.2020 13:00:00 17,4 11,9 3 2 9 5 SW 0,0
21.09.2020 12:00:00 16,5 11,2 3 2 9 5 WSW 0,0
21.09.2020 11:00:00 15,3 12,4 2 1 7 4 SW 0,0
21.09.2020 10:00:00 13,8 12,7 0 0 5 3 N 0,0
21.09.2020 09:00:00 12,7 12,7 0 0 4 2 N 0,0
21.09.2020 08:00:00 11,9 11,7 0 0 3 2 N 0,0
21.09.2020 07:00:00 11,8 11,6 0 0 4 2 N 0,0
21.09.2020 06:00:00 11,9 11,7 0 0 6 3 N 0,0
21.09.2020 05:00:00 11,9 11,7 0 0 4 2 N 0,0
21.09.2020 04:00:00 12,2 11,9 2 1 6 4 E 0,0
21.09.2020 03:00:00 12,6 12,3 0 0 5 3 N 0,0
21.09.2020 02:00:00 13,1 12,6 2 1 5 3 NNE 0,0
21.09.2020 01:00:00 13,5 13,0 2 1 10 5 S 0,2
21.09.2020 00:00:00 13,8 12,9 3 1 11 6 WSW 0,0
20.09.2020 23:00:00 14,1 13,0 0 0 11 6 N 0,0
20.09.2020 22:00:00 14,6 13,0 8 4 17 9 W 0,0
20.09.2020 21:00:00 15,1 13,6 3 1 12 6 SSW 0,0
20.09.2020 20:00:00 15,5 13,5 3 1 14 8 WSW 0,0
20.09.2020 19:00:00 16,4 13,5 5 3 15 8 WSW 0,0
20.09.2020 18:00:00 17,5 14,2 3 1 10 6 SW 0,0
20.09.2020 17:00:00 18,1 13,6 3 1 10 5 W 0,0
20.09.2020 16:00:00 - - - - - - - -
20.09.2020 15:00:00 16,8 13,5 0 0 13 7 N 0,0
20.09.2020 14:00:00 17,5 12,8 4 2 16 9 S 0,0
20.09.2020 13:00:00 17,4 12,3 3 2 14 8 SSW 0,0
20.09.2020 12:00:00 17,3 11,8 5 3 12 6 SW 0,0
20.09.2020 11:00:00 14,8 11,8 3 1 8 5 S 0,0
20.09.2020 10:00:00 - - - - - - - -
20.09.2020 09:00:00 11,0 11,0 2 1 9 5 SE 0,0
20.09.2020 08:00:00 10,0 10,0 3 1 8 4 E 0,0
20.09.2020 07:00:00 10,6 10,4 3 2 7 4 NNE 0,0
20.09.2020 06:00:00 10,6 10,6 2 1 6 3 NE 0,0
20.09.2020 05:00:00 10,3 10,3 3 2 10 5 ENE 0,0
20.09.2020 04:00:00 9,7 9,6 0 0 8 5 N 0,0
20.09.2020 03:00:00 10,1 9,8 0 0 8 4 N 0,0

tt = Température de l'air
td = dewpoint
ff = Vitesse du vent
fx = gusts
dd = Direction du vent
rr = Quantités de précipitations

stations d'obs. à proximité